createdAt,value
2017-10-15T00:00:23.483Z,10.50
2017-10-15T00:02:51.131Z,10.40
2017-10-15T00:05:18.913Z,10.40
2017-10-15T00:07:46.619Z,10.30
2017-10-15T00:10:14.406Z,10.30
2017-10-15T00:12:42.103Z,10.30
2017-10-15T00:15:09.774Z,10.30
2017-10-15T00:17:37.546Z,10.30
2017-10-15T00:20:05.279Z,10.20
2017-10-15T00:22:32.946Z,10.20
2017-10-15T00:25:00.600Z,10.20
2017-10-15T00:27:28.436Z,10.10
2017-10-15T00:29:56.182Z,10.10
2017-10-15T00:32:23.835Z,10.10
2017-10-15T00:34:51.677Z,10.20
2017-10-15T00:37:19.424Z,10.20
2017-10-15T00:39:47.079Z,10.20
2017-10-15T00:42:14.791Z,10.20
2017-10-15T00:44:42.464Z,10.20
2017-10-15T00:47:10.209Z,10.20
2017-10-15T00:49:37.919Z,10.20
2017-10-15T00:52:05.702Z,10.20
2017-10-15T00:54:33.450Z,10.00
2017-10-15T00:57:01.232Z,9.90
2017-10-15T00:59:29.050Z,9.80
2017-10-15T01:01:56.797Z,9.80
2017-10-15T01:04:24.735Z,9.80
2017-10-15T01:06:52.496Z,9.80
2017-10-15T01:09:20.176Z,9.80
2017-10-15T01:11:48.497Z,9.70
2017-10-15T01:14:16.189Z,9.70
2017-10-15T01:16:43.851Z,9.70
2017-10-15T01:19:11.628Z,9.60
2017-10-15T01:21:39.347Z,9.60
2017-10-15T01:24:07.094Z,9.60
2017-10-15T01:26:34.974Z,9.60
2017-10-15T01:29:02.709Z,9.50
2017-10-15T01:31:30.482Z,9.50
2017-10-15T01:33:58.434Z,9.50
2017-10-15T01:36:26.169Z,9.60
2017-10-15T01:38:53.899Z,9.60
2017-10-15T01:41:21.779Z,9.60
2017-10-15T01:43:49.526Z,9.60
2017-10-15T01:46:17.240Z,9.60
2017-10-15T01:48:45.122Z,9.60
2017-10-15T01:51:12.846Z,9.60
2017-10-15T01:53:40.539Z,9.60
2017-10-15T01:56:08.853Z,9.50
2017-10-15T01:58:36.531Z,9.50
2017-10-15T02:01:04.196Z,9.50
2017-10-15T02:03:32.325Z,9.30
2017-10-15T02:05:59.979Z,9.40
2017-10-15T02:08:27.667Z,9.20
2017-10-15T02:10:55.566Z,9.20
2017-10-15T02:13:23.256Z,9.20
2017-10-15T02:15:51.061Z,9.20
2017-10-15T02:18:18.910Z,9.20
2017-10-15T02:20:46.618Z,9.20
2017-10-15T02:23:14.283Z,9.20
2017-10-15T02:25:42.151Z,9.20
2017-10-15T02:28:09.899Z,9.30
2017-10-15T02:30:37.556Z,9.30
2017-10-15T02:33:05.272Z,9.30
2017-10-15T02:35:33.038Z,9.40
2017-10-15T02:38:00.788Z,9.40
2017-10-15T02:40:28.579Z,9.40
2017-10-15T02:42:56.299Z,9.40
2017-10-15T02:45:24.445Z,9.30
2017-10-15T02:47:52.289Z,9.30
2017-10-15T02:50:20.000Z,9.30
2017-10-15T02:52:47.651Z,9.30
2017-10-15T02:55:15.335Z,9.30
2017-10-15T02:57:43.074Z,9.30
2017-10-15T03:00:10.821Z,9.20
2017-10-15T03:02:38.518Z,9.20
2017-10-15T03:05:06.176Z,9.20
2017-10-15T03:07:33.831Z,9.20
2017-10-15T03:10:01.609Z,9.10
2017-10-15T03:12:29.255Z,9.10
2017-10-15T03:14:56.904Z,9.10
2017-10-15T03:17:24.607Z,9.10
2017-10-15T03:19:52.391Z,9.00
2017-10-15T03:22:20.162Z,9.00
2017-10-15T03:24:47.886Z,9.00
2017-10-15T03:27:15.633Z,9.00
2017-10-15T03:29:43.284Z,8.90
2017-10-15T03:32:10.983Z,8.80
2017-10-15T03:34:38.670Z,8.90
2017-10-15T03:37:07.243Z,8.90
2017-10-15T03:39:35.085Z,9.00
2017-10-15T03:42:02.836Z,9.10
2017-10-15T03:44:30.584Z,9.10
2017-10-15T03:46:58.274Z,9.10
2017-10-15T03:49:25.923Z,9.00
2017-10-15T03:51:53.576Z,9.00
2017-10-15T03:54:21.368Z,9.00
2017-10-15T03:56:49.114Z,8.90
2017-10-15T03:59:16.861Z,9.00
2017-10-15T04:01:44.659Z,9.00
2017-10-15T04:04:12.356Z,8.90
2017-10-15T04:06:40.008Z,8.80
2017-10-15T04:09:07.748Z,8.70
2017-10-15T04:11:35.418Z,8.70
2017-10-15T04:14:03.535Z,8.80
2017-10-15T04:16:31.401Z,8.70
2017-10-15T04:18:59.103Z,8.80
2017-10-15T04:21:26.797Z,8.70
2017-10-15T04:23:54.539Z,8.80
2017-10-15T04:26:22.289Z,8.80
2017-10-15T04:28:49.935Z,8.80
2017-10-15T04:31:17.642Z,8.80
2017-10-15T04:33:45.324Z,8.80
2017-10-15T04:36:13.072Z,8.80
2017-10-15T04:38:40.779Z,8.90
2017-10-15T04:41:08.422Z,9.00
2017-10-15T04:43:36.086Z,9.00
2017-10-15T04:46:03.856Z,9.00
2017-10-15T04:48:31.606Z,9.00
2017-10-15T04:50:59.249Z,9.10
2017-10-15T04:53:26.943Z,9.20
2017-10-15T04:55:54.594Z,9.20
2017-10-15T04:58:22.239Z,9.20
2017-10-15T05:00:49.951Z,9.10
2017-10-15T05:03:18.089Z,8.90
2017-10-15T05:05:45.738Z,8.90
2017-10-15T05:08:13.480Z,8.80
2017-10-15T05:10:41.228Z,8.80
2017-10-15T05:13:08.915Z,8.70
2017-10-15T05:15:36.639Z,8.70
2017-10-15T05:18:04.469Z,8.70
2017-10-15T05:20:32.113Z,8.60
2017-10-15T05:22:59.865Z,8.60
2017-10-15T05:25:27.611Z,8.60
2017-10-15T05:27:55.255Z,8.60
2017-10-15T05:30:23.004Z,8.50
2017-10-15T05:32:50.751Z,8.50
2017-10-15T05:35:18.497Z,8.40
2017-10-15T05:37:46.244Z,8.40
2017-10-15T05:40:13.992Z,8.40
2017-10-15T05:42:41.742Z,8.40
2017-10-15T05:45:09.544Z,8.40
2017-10-15T05:47:37.337Z,8.50
2017-10-15T05:50:05.039Z,8.50
2017-10-15T05:52:33.022Z,8.50
2017-10-15T05:55:00.786Z,8.50
2017-10-15T05:57:28.538Z,8.50
2017-10-15T05:59:56.281Z,8.50
2017-10-15T06:02:23.980Z,8.50
2017-10-15T06:04:51.671Z,8.50
2017-10-15T06:07:19.932Z,8.60
2017-10-15T06:09:47.708Z,8.60
2017-10-15T06:12:15.826Z,8.80
2017-10-15T06:14:43.554Z,8.80
2017-10-15T06:17:11.271Z,8.90
2017-10-15T06:19:38.974Z,9.10
2017-10-15T06:22:06.800Z,9.30
2017-10-15T06:24:34.491Z,9.50
2017-10-15T06:27:02.562Z,9.90
2017-10-15T06:29:30.406Z,9.90
2017-10-15T06:31:58.532Z,10.10
2017-10-15T06:34:26.191Z,10.10
2017-10-15T06:36:53.902Z,10.10
2017-10-15T06:39:21.671Z,10.20
2017-10-15T06:41:49.323Z,10.30
2017-10-15T06:44:17.175Z,10.50
2017-10-15T06:46:44.912Z,10.50
2017-10-15T06:49:12.607Z,10.80
2017-10-15T06:51:40.331Z,11.00
2017-10-15T06:54:08.388Z,11.20
2017-10-15T06:56:36.516Z,11.20
2017-10-15T06:59:04.365Z,11.20
2017-10-15T07:01:32.012Z,11.30
2017-10-15T07:03:59.663Z,11.40
2017-10-15T07:06:27.405Z,11.40
2017-10-15T07:08:55.154Z,11.80
2017-10-15T07:11:22.850Z,12.20
2017-10-15T07:13:50.646Z,12.30
2017-10-15T07:16:18.347Z,12.30
2017-10-15T07:18:46.140Z,12.60
2017-10-15T07:21:13.888Z,12.70
2017-10-15T07:23:41.635Z,12.70
2017-10-15T07:26:09.383Z,12.60
2017-10-15T07:28:37.107Z,12.80
2017-10-15T07:31:04.877Z,12.90
2017-10-15T07:33:32.625Z,13.00
2017-10-15T07:36:00.475Z,13.30
2017-10-15T07:38:28.224Z,13.30
2017-10-15T07:40:55.900Z,13.40
2017-10-15T07:43:24.000Z,13.50
2017-10-15T07:45:51.648Z,13.50
2017-10-15T07:48:19.314Z,13.70
2017-10-15T07:50:47.040Z,13.60
2017-10-15T07:53:14.735Z,13.70
2017-10-15T07:55:42.861Z,14.00
2017-10-15T07:58:10.613Z,14.00
2017-10-15T08:00:38.263Z,14.30
2017-10-15T08:03:05.995Z,14.30
2017-10-15T08:05:33.704Z,14.60
2017-10-15T08:08:01.347Z,15.00
2017-10-15T08:10:29.042Z,15.30
2017-10-15T08:12:56.739Z,15.50
2017-10-15T08:15:24.439Z,15.70
2017-10-15T08:17:52.181Z,15.80
2017-10-15T08:20:19.888Z,15.80
2017-10-15T08:22:47.573Z,15.90
2017-10-15T08:25:15.320Z,15.90
2017-10-15T08:27:43.028Z,15.90
2017-10-15T08:30:10.676Z,16.00
2017-10-15T08:32:38.357Z,16.10
2017-10-15T08:35:06.056Z,16.10
2017-10-15T08:37:33.763Z,16.20
2017-10-15T08:40:01.499Z,16.40
2017-10-15T08:42:29.250Z,16.50
2017-10-15T08:44:57.404Z,16.60
2017-10-15T08:47:25.044Z,16.60
2017-10-15T08:49:52.898Z,16.70
2017-10-15T08:52:20.548Z,16.80
2017-10-15T08:54:48.289Z,16.90
2017-10-15T08:57:16.140Z,17.00
2017-10-15T08:59:43.818Z,17.00
2017-10-15T09:02:11.531Z,16.90
2017-10-15T09:04:39.278Z,16.90
2017-10-15T09:07:07.025Z,17.10
2017-10-15T09:09:34.744Z,17.30
2017-10-15T09:12:02.519Z,17.50
2017-10-15T09:14:30.269Z,17.70
2017-10-15T09:16:58.017Z,17.70
2017-10-15T09:21:58.456Z,17.70
2017-10-15T09:24:26.496Z,17.80
2017-10-15T09:26:54.152Z,17.70
2017-10-15T09:29:22.282Z,18.00
2017-10-15T09:31:49.952Z,18.00
2017-10-15T09:34:18.008Z,18.00
2017-10-15T09:36:46.243Z,18.10
2017-10-15T09:39:13.893Z,18.10
2017-10-15T09:41:41.674Z,18.30
2017-10-15T09:44:09.867Z,18.50
2017-10-15T09:46:37.638Z,18.50
2017-10-15T09:49:05.299Z,18.50
2017-10-15T09:51:33.134Z,18.60
2017-10-15T09:54:00.883Z,18.60
2017-10-15T09:56:28.539Z,18.50
2017-10-15T09:58:56.447Z,18.50
2017-10-15T10:01:24.099Z,18.50
2017-10-15T10:03:51.769Z,18.60
2017-10-15T10:06:19.519Z,18.60
2017-10-15T10:08:47.190Z,18.70
2017-10-15T10:11:15.230Z,18.90
2017-10-15T10:13:42.964Z,18.90
2017-10-15T10:16:10.709Z,18.90
2017-10-15T10:18:38.364Z,18.90
2017-10-15T10:21:06.105Z,18.90
2017-10-15T10:23:33.775Z,18.90
2017-10-15T10:26:01.996Z,18.90
2017-10-15T10:28:29.707Z,18.90
2017-10-15T10:30:57.346Z,18.90
2017-10-15T10:33:25.046Z,19.00
2017-10-15T10:35:52.908Z,19.10
2017-10-15T10:38:20.743Z,19.20
2017-10-15T10:40:48.594Z,19.20
2017-10-15T10:43:16.648Z,19.30
2017-10-15T10:45:44.396Z,19.30
2017-10-15T10:48:12.207Z,19.30
2017-10-15T10:50:39.944Z,19.30
2017-10-15T10:53:07.712Z,19.30
2017-10-15T10:55:35.612Z,19.30
2017-10-15T10:58:03.468Z,19.40
2017-10-15T11:00:31.805Z,19.60
2017-10-15T11:02:59.654Z,19.60
2017-10-15T11:05:27.622Z,19.70
2017-10-15T11:07:55.355Z,19.90
2017-10-15T11:10:23.100Z,20.00
2017-10-15T11:12:50.875Z,20.10
2017-10-15T11:15:19.009Z,20.50
2017-10-15T11:17:46.854Z,20.50
2017-10-15T11:20:14.600Z,20.70
2017-10-15T11:22:42.347Z,20.80
2017-10-15T11:25:09.995Z,20.90
2017-10-15T11:27:37.738Z,21.10
2017-10-15T11:30:05.485Z,21.20
2017-10-15T11:32:33.146Z,21.30
2017-10-15T11:35:00.847Z,21.40
2017-10-15T11:37:28.499Z,21.40
2017-10-15T11:39:56.169Z,21.40
2017-10-15T11:42:23.956Z,21.30
2017-10-15T11:44:52.074Z,21.30
2017-10-15T11:47:19.719Z,21.30
2017-10-15T11:49:47.659Z,21.30
2017-10-15T11:52:15.418Z,21.30
2017-10-15T11:54:43.165Z,21.30
2017-10-15T11:57:10.855Z,21.40
2017-10-15T11:59:38.495Z,21.50
2017-10-15T12:02:06.611Z,21.60
2017-10-15T12:04:34.460Z,21.60
2017-10-15T12:07:02.103Z,21.70
2017-10-15T12:09:29.855Z,21.80
2017-10-15T12:11:57.705Z,21.90
2017-10-15T12:14:25.452Z,22.00
2017-10-15T12:16:53.199Z,22.10
2017-10-15T12:19:20.939Z,22.20
2017-10-15T12:21:48.582Z,22.30
2017-10-15T12:24:16.234Z,22.30
2017-10-15T12:26:47.335Z,22.40
2017-10-15T12:29:14.984Z,22.70
2017-10-15T12:31:42.655Z,22.70
2017-10-15T12:34:10.501Z,22.50
2017-10-15T12:36:38.249Z,22.60
2017-10-15T12:39:05.996Z,22.60
2017-10-15T12:41:33.846Z,22.50
2017-10-15T12:44:01.596Z,22.50
2017-10-15T12:46:29.343Z,22.70
2017-10-15T12:48:57.542Z,22.60
2017-10-15T12:51:25.230Z,22.50
2017-10-15T12:53:52.875Z,22.60
2017-10-15T12:56:20.579Z,22.70
2017-10-15T12:58:48.692Z,23.10
2017-10-15T13:01:16.440Z,23.10
2017-10-15T13:03:45.388Z,23.20
2017-10-15T13:06:13.271Z,23.20
2017-10-15T13:08:41.241Z,23.30
2017-10-15T13:11:08.990Z,23.20
2017-10-15T13:13:37.224Z,23.50
2017-10-15T13:16:04.973Z,23.50
2017-10-15T13:18:32.821Z,23.50
2017-10-15T13:21:00.525Z,23.50
2017-10-15T13:23:28.318Z,23.50
2017-10-15T13:25:56.270Z,23.50
2017-10-15T13:28:24.225Z,23.50
2017-10-15T13:30:52.378Z,23.30
2017-10-15T13:33:20.229Z,23.20
2017-10-15T13:35:48.387Z,23.20
2017-10-15T13:38:16.083Z,23.20
2017-10-15T13:40:43.879Z,23.20
2017-10-15T13:43:11.626Z,23.30
2017-10-15T13:45:39.374Z,23.50
2017-10-15T13:48:07.121Z,23.60
2017-10-15T13:50:34.868Z,23.60
2017-10-15T13:53:02.615Z,23.50
2017-10-15T13:55:30.575Z,23.40
2017-10-15T13:57:58.726Z,23.30
2017-10-15T14:00:26.419Z,23.30
2017-10-15T14:02:54.528Z,23.40
2017-10-15T14:05:22.377Z,23.20
2017-10-15T14:07:50.638Z,23.30
2017-10-15T14:10:18.945Z,23.30
2017-10-15T14:12:46.750Z,23.30
2017-10-15T14:15:14.493Z,23.40
2017-10-15T14:17:43.161Z,23.30
2017-10-15T14:20:10.806Z,23.00
2017-10-15T14:22:38.757Z,22.90
2017-10-15T14:25:06.735Z,22.90
2017-10-15T14:27:34.899Z,22.80
2017-10-15T14:30:04.051Z,22.80
2017-10-15T14:32:31.793Z,22.80
2017-10-15T14:34:59.751Z,22.90
2017-10-15T14:37:27.407Z,22.90
2017-10-15T14:39:55.107Z,22.90
2017-10-15T14:42:22.759Z,22.90
2017-10-15T14:44:50.415Z,22.80
2017-10-15T14:47:18.100Z,22.60
2017-10-15T14:49:46.335Z,22.30
2017-10-15T14:52:14.082Z,22.40
2017-10-15T14:54:41.829Z,22.30
2017-10-15T14:57:09.463Z,22.20
2017-10-15T14:59:37.630Z,22.10
2017-10-15T15:02:05.351Z,22.10
2017-10-15T15:04:33.124Z,22.10
2017-10-15T15:07:00.875Z,22.10
2017-10-15T15:09:28.571Z,22.00
2017-10-15T15:11:56.217Z,21.90
2017-10-15T15:14:23.875Z,21.60
2017-10-15T15:16:51.658Z,21.40
2017-10-15T15:19:19.406Z,21.10
2017-10-15T15:21:47.153Z,20.90
2017-10-15T15:24:14.908Z,20.70
2017-10-15T15:26:42.607Z,20.50
2017-10-15T15:29:10.251Z,20.30
2017-10-15T15:31:38.041Z,20.10
2017-10-15T15:34:05.786Z,20.00
2017-10-15T15:36:33.534Z,19.90
2017-10-15T15:39:01.284Z,19.80
2017-10-15T15:41:29.032Z,19.60
2017-10-15T15:43:56.778Z,19.50
2017-10-15T15:46:24.494Z,19.40
2017-10-15T15:48:52.156Z,19.30
2017-10-15T15:51:19.951Z,19.20
2017-10-15T15:53:47.869Z,19.10
2017-10-15T15:56:15.544Z,19.00
2017-10-15T15:58:43.588Z,18.80
2017-10-15T16:01:11.379Z,18.80
2017-10-15T16:03:39.050Z,18.70
2017-10-15T16:06:06.814Z,18.60
2017-10-15T16:08:34.761Z,18.50
2017-10-15T16:11:02.509Z,18.40
2017-10-15T16:13:30.199Z,18.30
2017-10-15T16:15:58.314Z,18.10
2017-10-15T16:18:26.061Z,18.10
2017-10-15T16:20:53.808Z,18.00
2017-10-15T16:23:21.523Z,17.90
2017-10-15T16:25:49.201Z,17.80
2017-10-15T16:28:16.863Z,17.70
2017-10-15T16:30:44.568Z,17.60
2017-10-15T16:33:12.212Z,17.50
2017-10-15T16:35:39.985Z,17.30
2017-10-15T16:38:07.730Z,17.30
2017-10-15T16:40:35.380Z,17.20
2017-10-15T16:43:03.127Z,17.10
2017-10-15T16:45:30.976Z,17.00
2017-10-15T16:47:58.631Z,16.90
2017-10-15T16:50:26.368Z,16.80
2017-10-15T16:52:54.123Z,16.80
2017-10-15T16:58:16.947Z,16.70
2017-10-15T17:00:44.656Z,16.60
2017-10-15T17:03:12.368Z,16.60
2017-10-15T17:05:40.494Z,16.50
2017-10-15T17:08:08.200Z,16.50
2017-10-15T17:10:35.887Z,16.40
2017-10-15T17:13:04.611Z,16.40
2017-10-15T17:15:32.264Z,16.30
2017-10-15T17:17:59.964Z,16.30
2017-10-15T17:20:27.733Z,16.20
2017-10-15T17:22:55.823Z,16.20
2017-10-15T17:25:23.463Z,16.20
2017-10-15T17:27:51.452Z,16.20
2017-10-15T17:30:19.107Z,16.10
2017-10-15T17:32:46.764Z,16.10
2017-10-15T17:35:14.595Z,16.10
2017-10-15T17:37:42.303Z,16.10
2017-10-15T17:40:09.956Z,16.10
2017-10-15T17:42:37.696Z,16.00
2017-10-15T17:45:05.404Z,15.90
2017-10-15T17:47:33.464Z,15.90
2017-10-15T17:50:01.683Z,15.90
2017-10-15T17:52:29.343Z,15.90
2017-10-15T17:54:57.083Z,15.90
2017-10-15T17:57:24.831Z,15.80
2017-10-15T17:59:52.508Z,15.80
2017-10-15T18:02:30.580Z,15.70
2017-10-15T18:04:58.228Z,15.70
2017-10-15T18:07:26.366Z,15.50
2017-10-15T18:09:54.155Z,15.50
2017-10-15T18:12:21.861Z,15.40
2017-10-15T18:14:49.608Z,15.30
2017-10-15T18:17:17.310Z,15.30
2017-10-15T18:19:45.005Z,15.20
2017-10-15T18:22:12.746Z,15.20
2017-10-15T18:24:41.547Z,15.20
2017-10-15T18:27:10.131Z,15.20
2017-10-15T18:29:37.830Z,15.10
2017-10-15T18:32:05.578Z,15.10
2017-10-15T18:34:33.736Z,15.10
2017-10-15T18:37:01.424Z,15.00
2017-10-15T18:39:29.158Z,14.90
2017-10-15T18:41:58.647Z,14.70
2017-10-15T18:44:26.700Z,14.70
2017-10-15T18:46:55.403Z,14.70
2017-10-15T18:49:23.055Z,14.70
2017-10-15T18:51:50.835Z,14.60
2017-10-15T18:54:18.585Z,14.60
2017-10-15T18:56:46.291Z,14.60
2017-10-15T18:59:13.974Z,14.60
2017-10-15T19:01:41.686Z,14.60
2017-10-15T19:04:09.674Z,14.60
2017-10-15T19:06:37.419Z,14.50
2017-10-15T19:09:05.179Z,14.50
2017-10-15T19:11:33.133Z,14.50
2017-10-15T19:14:00.804Z,14.40
2017-10-15T19:16:29.026Z,14.40
2017-10-15T19:18:57.628Z,14.40
2017-10-15T19:21:25.694Z,14.40
2017-10-15T19:23:53.497Z,14.40
2017-10-15T19:26:21.244Z,14.30
2017-10-15T19:28:49.321Z,14.30
2017-10-15T19:31:17.968Z,14.30
2017-10-15T19:33:45.956Z,14.30
2017-10-15T19:36:14.895Z,14.30
2017-10-15T19:38:43.155Z,14.30
2017-10-15T19:41:11.003Z,14.30
2017-10-15T19:43:38.674Z,14.30
2017-10-15T19:46:08.035Z,14.20
2017-10-15T19:48:35.762Z,14.20
2017-10-15T19:51:03.497Z,14.10
2017-10-15T19:53:31.587Z,14.10
2017-10-15T19:55:59.243Z,14.00
2017-10-15T19:58:26.896Z,14.00
2017-10-15T20:00:55.031Z,13.90
2017-10-15T20:03:22.695Z,13.90
2017-10-15T20:05:50.775Z,13.80
2017-10-15T20:08:18.580Z,13.80
2017-10-15T20:10:46.283Z,13.70
2017-10-15T20:13:13.973Z,13.70
2017-10-15T20:15:42.129Z,13.70
2017-10-15T20:18:09.877Z,13.60
2017-10-15T20:20:37.624Z,13.60
2017-10-15T20:23:05.352Z,13.60
2017-10-15T20:25:34.141Z,13.60
2017-10-15T20:28:01.792Z,13.50
2017-10-15T20:30:29.538Z,13.50
2017-10-15T20:32:57.187Z,13.50
2017-10-15T20:35:24.928Z,13.50
2017-10-15T20:37:53.260Z,13.40
2017-10-15T20:40:20.987Z,13.40
2017-10-15T20:42:48.639Z,13.40
2017-10-15T20:45:16.330Z,13.40
2017-10-15T20:47:43.987Z,13.30
2017-10-15T20:50:11.719Z,13.20
2017-10-15T20:52:39.465Z,13.10
2017-10-15T20:55:07.116Z,13.10
2017-10-15T20:57:34.788Z,13.10
2017-10-15T21:00:02.927Z,13.10
2017-10-15T21:02:30.627Z,13.10
2017-10-15T21:04:58.319Z,13.00
2017-10-15T21:07:26.050Z,13.00
2017-10-15T21:09:53.801Z,12.90
2017-10-15T21:12:21.499Z,12.90
2017-10-15T21:14:49.501Z,12.90
2017-10-15T21:17:17.156Z,12.80
2017-10-15T21:19:44.811Z,12.70
2017-10-15T21:22:13.049Z,12.60
2017-10-15T21:24:40.797Z,12.60
2017-10-15T21:27:08.455Z,12.60
2017-10-15T21:29:36.280Z,12.50
2017-10-15T21:32:03.940Z,12.50
2017-10-15T21:34:31.591Z,12.50
2017-10-15T21:36:59.383Z,12.40
2017-10-15T21:39:27.036Z,12.50
2017-10-15T21:41:54.700Z,12.50
2017-10-15T21:44:22.674Z,12.50
2017-10-15T21:46:50.421Z,12.50
2017-10-15T21:49:18.170Z,12.60
2017-10-15T21:51:45.883Z,12.60
2017-10-15T21:54:13.515Z,12.60
2017-10-15T21:56:41.206Z,12.60
2017-10-15T21:59:08.902Z,12.50
2017-10-15T22:01:36.597Z,12.40
2017-10-15T22:04:04.345Z,12.40
2017-10-15T22:06:32.137Z,12.40
2017-10-15T22:08:59.840Z,12.40
2017-10-15T22:11:27.496Z,12.40
2017-10-15T22:13:55.233Z,12.30
2017-10-15T22:16:22.877Z,12.40
2017-10-15T22:18:56.383Z,12.30
2017-10-15T22:21:30.252Z,12.30
2017-10-15T22:23:57.963Z,12.30
2017-10-15T22:26:25.642Z,12.30
2017-10-15T22:28:53.390Z,12.30
2017-10-15T22:31:21.139Z,12.30
2017-10-15T22:33:48.885Z,12.30
2017-10-15T22:36:16.631Z,12.30
2017-10-15T22:38:44.434Z,12.30
2017-10-15T22:41:12.084Z,12.20
2017-10-15T22:43:39.738Z,12.20
2017-10-15T22:46:07.549Z,12.20
2017-10-15T22:48:35.607Z,12.10
2017-10-15T22:51:03.730Z,12.10
2017-10-15T22:53:31.488Z,12.10
2017-10-15T22:55:59.188Z,12.10
2017-10-15T22:58:26.871Z,12.10
2017-10-15T23:00:54.599Z,12.10
2017-10-15T23:03:22.251Z,12.10
2017-10-15T23:05:49.908Z,12.00
2017-10-15T23:08:17.608Z,12.00
2017-10-15T23:10:45.299Z,11.90
2017-10-15T23:13:13.047Z,11.80
2017-10-15T23:15:40.896Z,11.80
2017-10-15T23:18:08.583Z,11.80
2017-10-15T23:20:36.288Z,11.70
2017-10-15T23:23:04.123Z,11.60
2017-10-15T23:25:31.779Z,11.60
2017-10-15T23:27:59.430Z,11.60
2017-10-15T23:30:27.280Z,11.50
2017-10-15T23:32:55.027Z,11.50
2017-10-15T23:35:22.774Z,11.40
2017-10-15T23:37:50.624Z,11.30
2017-10-15T23:40:18.371Z,11.10
2017-10-15T23:42:46.118Z,11.10
2017-10-15T23:45:13.871Z,11.10
2017-10-15T23:47:41.502Z,11.10
2017-10-15T23:50:09.257Z,11.10
2017-10-15T23:52:36.959Z,10.90
2017-10-15T23:55:04.619Z,10.90
2017-10-15T23:57:32.307Z,10.90
